Aérodrome :
LOGIN :

S'inscrire | Disclaimer

   EN    FR    IT 

 










Légende :    VFR   VFR Marginal   IFR   IFR Intensif   IFR Très Intensif
Visi : 
Plafond : 
>= 8 km
>= 3000ft
5 à 8 km
1000 à 3000 ft
1500m à 5 km
500 à 1000 ft
800 à 1500m
200 à 500 ft
< 800m
< 200 ft
Symboles :   Orages  Brouillard  Fortes neiges  Fortes précipitations  Vent > 20 kt
SIGMETs :   Divers  Orages  Givrage  Turbulence  Onde Orograph.  Cendres Volcan.






- Altitude de l'aérodrome : 525 ft
- Code IATA : VAF


LFLU - Valence

DERNIER METAR :
  • 231800Z AUTO VRB02KT CAVOK 17/16 Q1017

METARs EXPIRÉS :
  • 231730Z AUTO 07005KT 040V100 9999 -RA ///CB 17/16 Q1016
  • 231700Z AUTO 02007KT 340V050 9000 +RA VCTS FEW043/// SCT054/// BKN066/// ///CB 17/15 Q1017
  • 231630Z AUTO 23007KT 160V290 9999 +TSRA FEW052/// BKN064/// BKN086/// ///CB 17/16 Q1017
  • 231600Z AUTO 33011KT 290V360 9999 TS FEW046/// SCT056/// BKN068/// ///CB 19/16 Q1015

TAF N/A



MET'MAP, la Météo Aéronautique d'un coup d'oeil ! - Copyright ORBIFLY Décembre 2007 - Disclaimer

ORBIFLY MET'MAP TEAM :

Programmation & Développement : Alexandra Zaïnal
Sur une idée originale de : Baudouin d'Aumeries
Assistance à la programmation : Marc-Olivier Méhu
Soutien technique & logistique : Manuel Goepfert

Contact : metmap@orbifly.com




SOURCES & CREDITS :

   NOAA